x

Nantucket 54nm Southeast Of Nantucket (44008) Wave Buoy

5:50pm - Fri 30th Jan 2015 All times are EST. -5 hours from GMT.

  • Sig Wave height 4.6ft
  • Swell Direction
  • Peak Period 6s
  • Average Period 5s
  • Wind
    22mph, 25mph gusts
  • Sea Temp 46°f
  • Air Temp 41°f
  • Sea Pressure 1002.9mb
  • Nantucket 54nm Southeast Of Nantucket
  • Nantucket 54nm Southeast Of Nantucket

More Historic Weather Station data

Upgrade to MSW Pro to gain access to the past 30 days of data for over 8000 Wavebouys and Weather Stations around the globe.

Join Pro

Comparision Forecast

View Surf forecast
   
Fri 01/30 5:50pm 4.5ft 6s 5s 22 25 mph 1002.9mb 46f 41f
4:50pm 4.5ft 6s 5s 20 22 mph 1002.7mb 46f 42f
3:50pm 4.5ft 6s 5s 13 18 mph 1002.9mb 46f 44f
2:50pm 4.5ft 5s 5s 4 7 mph 1003.1mb 46f 46f
1:50pm 4.5ft 5s 5s 4
mph
1004.3mb 46f 46f
12:50pm 4ft 5s 5s 2
mph
1005.3mb 46f 46f
11:50am 4ft 9s 5s  -  2 mph 1006.9mb 46f 46f
10:50am 3.5ft 9s 5s 9 11 mph 1007.9mb 46f 46f
9:50am 3.5ft 9s 5s 9
mph
1008.4mb 46f 48f
8:50am 3.5ft 10s 5s 9 11 mph 1009.5mb 46f 47f
7:50am 3.5ft 11s 5s 16 18 mph 1010.1mb 46f 46f
6:50am 3.5ft 9s 5s 16 18 mph 1011mb 46f 44f
5:50am 3.5ft 9s 5s 18 20 mph 1012mb 46f 43f
4:50am 3.5ft 10s 6s 16 18 mph 1013mb 46f 42f
3:50am 3.5ft 9s 6s 13 18 mph 1014.3mb 46f 40f
2:50am 3.5ft 10s 6s 9 13 mph 1015.5mb 46f 39f
1:50am 4ft 7s 6s 7 9 mph 1016.5mb 46f 39f
12:50am 3.5ft 9s 6s 4 7 mph 1017.6mb 46f 38f
Thu 01/29 11:50pm 4.5ft 6s 6s 7 9 mph 1018.7mb 46f 38f
10:50pm 4.5ft 6s 6s 7 9 mph 1019.4mb 46f 37f
9:50pm 4.5ft 10s 6s 2 7 mph 1019.6mb 46f 37f
8:50pm 4.5ft 7s 6s 2 7 mph 1020.5mb 47f 37f
7:50pm 4ft 10s 6s 4 9 mph 1021mb 47f 37f
6:50pm 4.5ft 8s 6s 2 9 mph 1021.2mb 47f 36f
5:50pm 4.5ft 8s 6s 7 9 mph 1021.5mb 47f 36f
4:50pm 4.5ft 8s  -  7 11 mph 1021.2mb 47f 37f
3:50pm 4.5ft 7s 6s 7 11 mph 1021.1mb 46f 36f
2:50pm 5ft 8s 6s 9 11 mph 1021.7mb 46f 36f
1:50pm 5ft 8s 6s 11 16 mph 1021.5mb 46f 37f
12:50pm 5.5ft 8s 6s 13 20 mph 1022.3mb 46f 36f
11:50am 6.5ft 7s 6s 13 20 mph 1023.4mb 46f 36f
10:50am 6.5ft 8s 6s 11 16 mph 1024mb 46f 36f
9:50am 7ft 6s 6s 18 22 mph 1023.9mb 46f 36f
8:50am 7ft 7s 6s 18 22 mph 1023.4mb 46f 36f
7:50am 7ft 6s 6s 18 25 mph 1023.3mb 46f 37f
6:50am 6.5ft 8s 6s 18 25 mph 1022.6mb 46f 36f
5:50am 6ft 8s 6s 22 27 mph 1021.6mb 46f 36f
4:50am 6.5ft 9s 6s 20 27 mph 1021.3mb 46f 36f
3:50am 6ft 7s 6s 20 25 mph 1020.9mb 46f 35f
2:50am 7ft 10s 6s 18 22 mph 1020.6mb 46f 35f
1:50am 7.5ft 10s 7s 11 16 mph 1020.6mb 46f 34f
12:50am 8ft 10s 6s 18 22 mph 1020.3mb 46f 33f
Wed 01/28 11:50pm 8.5ft 9s 6s 20 25 mph 1020.2mb 46f 33f
10:50pm 9ft 8s 6s 18 25 mph 1020mb 46f 33f
9:50pm 9ft 9s 6s 20 25 mph 1019.1mb 46f 33f
8:50pm 10ft 10s 7s 18 25 mph 1018.6mb 46f 32f
7:50pm 9ft 10s 7s 18 22 mph 1017.8mb 46f 30f
6:50pm 8.5ft 10s 7s 16 22 mph 1016.9mb 47f 31f
5:50pm 8ft 11s 7s 16 22 mph 1016.1mb 47f 31f
4:50pm 8.5ft 11s 7s 18 22 mph 1014.9mb 47f 31f
3:50pm 8.5ft 11s 7s 16 20 mph 1013.9mb 46f 30f
2:50pm 9ft 11s 8s 11 18 mph 1013.2mb 46f 30f
1:50pm 9ft 11s 8s 13 16 mph 1012.5mb 46f 29f
12:50pm 10ft 11s 8s 13 22 mph 1012mb 46f 29f
11:50am 10ft 11s 8s 16 20 mph 1011.6mb 47f 28f
10:50am 11ft 11s 7s 13 18 mph 1011.6mb 46f 28f
9:50am 12ft 11s 8s 18 22 mph 1010.9mb 47f 27f
8:50am 13ft 12s 8s 20 22 mph 1009.9mb 47f 27f
7:50am 13ft 11s 8s 20 27 mph 1008.9mb 47f 27f
6:50am 12.5ft 11s 8s 18 25 mph 1007.7mb 47f 27f
5:50am 13ft 11s 8s 18 25 mph 1006.7mb 48f 27f
4:50am 14ft 13s 8s 22 29 mph 1005.5mb 48f 27f
3:50am 13ft 12s 8s 25 29 mph 1004.5mb 48f 27f
2:50am 14ft 13s 8s 22 29 mph 1003.7mb 48f 28f
1:50am 15ft 14s 8s 22 29 mph 1003.1mb 48f 27f
12:50am 15ft 14s 8s 25 31 mph 1001.8mb 48f 27f
Tue 01/27 11:50pm 15ft 14s 8s 25 31 mph 1000.9mb 48f 28f
10:50pm 16.5ft 8s 8s 27 36 mph 1000.1mb 48f 29f
9:50pm 17.5ft 9s 8s 31 40 mph 998.7mb 48f 29f
8:50pm 18.5ft 13s 8s 31 40 mph 997.7mb 47f 29f
7:50pm 18.5ft 12s 8s 36 43 mph 996.4mb 47f 29f
6:50pm 18.5ft 14s 8s 36 45 mph 995.1mb 48f 29f
5:50pm 21.5ft 9s 9s 38 45 mph 993.5mb 48f 29f
4:50pm 20.5ft 9s 8s 36 47 mph 991.8mb 49f 31f
3:50pm 23ft 9s 9s 43 54 mph 989.2mb 49f 33f
2:50pm 21.5ft 13s 9s 40 56 mph 987.1mb 49f 34f
1:50pm 19.5ft 12s 9s 38 49 mph 985.1mb 49f 36f
12:50pm 19ft 11s 8s 43 51 mph 983.2mb 49f 37f
11:50am 19ft 11s 8s 43 58 mph 981.5mb 48f 38f
10:50am 22ft 12s 9s 43 51 mph 979.4mb 48f 39f
9:50am 23.5ft 11s 9s 40 51 mph 978.1mb 48f 43f
8:50am 23.5ft 11s 9s 38 47 mph 978mb 48f 44f
7:50am 22.5ft 11s 8s 36 45 mph 978.4mb 50f 44f
6:50am 21.5ft 11s 8s 36 45 mph 977.5mb 50f 47f
5:50am 27ft 11s 9s 29 36 mph 978.9mb 51f 47f
4:50am 25.5ft 12s 9s 38 54 mph 979.4mb 51f 45f
3:50am 28ft 11s 9s 45 56 mph 979.8mb 51f 44f
2:50am 28ft 11s 10s 51 67 mph 980.9mb 51f 43f
1:50am 26ft 11s 9s 51 63 mph 984mb 49f 43f
12:50am 25ft 10s 9s 51 63 mph 985.8mb 48f 43f